createdAt,value
2023-04-29T00:01:25.910Z,0.70
2023-04-29T00:03:53.616Z,1.30
2023-04-29T00:06:21.493Z,1.17
2023-04-29T00:08:48.494Z,1.43
2023-04-29T00:11:15.619Z,1.30
2023-04-29T00:13:42.577Z,1.67
2023-04-29T00:16:12.225Z,1.47
2023-04-29T00:18:39.252Z,1.67
2023-04-29T00:21:06.377Z,3.63
2023-04-29T00:23:36.567Z,2.13
2023-04-29T00:26:03.703Z,1.30
2023-04-29T00:28:30.583Z,1.47
2023-04-29T00:30:57.972Z,1.30
2023-04-29T00:33:25.112Z,0.83
2023-04-29T00:35:52.096Z,0.80
2023-04-29T00:38:19.094Z,0.70
2023-04-29T00:40:46.318Z,2.43
2023-04-29T00:43:13.438Z,0.63
2023-04-29T00:45:40.559Z,0.70
2023-04-29T00:48:08.029Z,0.70
2023-04-29T00:50:36.731Z,1.57
2023-04-29T00:53:04.181Z,0.87
2023-04-29T00:55:32.931Z,0.67
2023-04-29T00:58:00.724Z,3.53
2023-04-29T01:00:28.324Z,1.40
2023-04-29T01:02:57.203Z,1.50
2023-04-29T01:05:25.139Z,0.97
2023-04-29T01:08:18.518Z,1.07
2023-04-29T01:10:54.552Z,0.50
2023-04-29T01:13:40.084Z,0.80
2023-04-29T01:16:17.353Z,1.20
2023-04-29T01:18:49.868Z,0.70
2023-04-29T01:21:16.781Z,0.60
2023-04-29T01:23:45.173Z,1.43
2023-04-29T01:26:12.172Z,0.90
2023-04-29T01:29:00.762Z,1.00
2023-04-29T01:31:45.156Z,1.20
2023-04-29T01:34:27.477Z,3.10
2023-04-29T01:37:35.816Z,0.70
2023-04-29T01:40:12.605Z,1.03
2023-04-29T01:43:03.411Z,0.53
2023-04-29T01:45:32.687Z,1.43
2023-04-29T01:48:00.952Z,0.50
2023-04-29T01:50:28.036Z,0.60
2023-04-29T01:52:54.982Z,0.73
2023-04-29T01:55:22.545Z,1.03
2023-04-29T01:57:49.419Z,0.70
2023-04-29T02:00:16.485Z,0.70
2023-04-29T02:02:43.473Z,0.80
2023-04-29T02:05:11.221Z,0.63
2023-04-29T02:07:38.210Z,1.33
2023-04-29T02:10:05.915Z,0.50
2023-04-29T02:12:32.841Z,0.83
2023-04-29T02:15:00.433Z,0.50
2023-04-29T02:17:27.607Z,0.63
2023-04-29T02:19:57.401Z,0.80
2023-04-29T02:22:24.376Z,0.60
2023-04-29T02:24:52.053Z,0.97
2023-04-29T02:27:19.137Z,1.03
2023-04-29T02:29:46.111Z,0.57
2023-04-29T02:32:15.444Z,0.80
2023-04-29T02:34:42.468Z,0.47
2023-04-29T02:37:09.407Z,0.83
2023-04-29T02:39:36.295Z,4.97
2023-04-29T02:42:03.197Z,0.63
2023-04-29T02:44:31.489Z,1.93
2023-04-29T02:46:58.488Z,1.23
2023-04-29T02:49:25.750Z,1.10
2023-04-29T02:51:52.665Z,0.80
2023-04-29T02:54:20.012Z,0.80
2023-04-29T02:56:46.932Z,0.63
2023-04-29T02:59:13.900Z,1.57
2023-04-29T03:01:41.474Z,1.60
2023-04-29T03:04:08.935Z,2.00
2023-04-29T03:06:36.440Z,0.93
2023-04-29T03:09:04.008Z,1.67
2023-04-29T03:11:30.936Z,1.20
2023-04-29T03:13:57.867Z,0.80
2023-04-29T03:16:25.404Z,0.67
2023-04-29T03:18:52.324Z,1.63
2023-04-29T03:21:19.732Z,1.70
2023-04-29T03:23:47.057Z,4.00
2023-04-29T03:26:14.027Z,0.90
2023-04-29T03:28:41.041Z,0.80
2023-04-29T03:31:08.043Z,0.70
2023-04-29T03:33:35.053Z,0.80
2023-04-29T03:36:02.005Z,0.60
2023-04-29T03:38:30.091Z,0.60
2023-04-29T03:40:57.022Z,1.13
2023-04-29T03:43:24.028Z,1.17
2023-04-29T03:45:51.532Z,0.80
2023-04-29T03:48:20.128Z,1.03
2023-04-29T03:50:47.335Z,1.37
2023-04-29T03:53:14.712Z,0.70
2023-04-29T03:55:41.734Z,0.57
2023-04-29T03:58:08.806Z,1.10
2023-04-29T04:00:35.852Z,0.70
2023-04-29T04:03:05.496Z,0.50
2023-04-29T04:05:32.975Z,1.43
2023-04-29T04:08:00.885Z,2.50
2023-04-29T04:10:28.542Z,0.77
2023-04-29T04:12:55.531Z,1.47
2023-04-29T04:15:22.728Z,2.77
2023-04-29T04:17:49.739Z,1.50
2023-04-29T04:20:17.377Z,1.47
2023-04-29T04:22:44.298Z,2.90
2023-04-29T04:25:11.381Z,1.40
2023-04-29T04:27:38.254Z,1.87
2023-04-29T04:30:05.733Z,1.07
2023-04-29T04:32:32.788Z,1.43
2023-04-29T04:34:59.712Z,1.93
2023-04-29T04:37:26.650Z,1.40
2023-04-29T04:39:53.775Z,1.03
2023-04-29T04:42:22.752Z,2.37
2023-04-29T04:44:49.663Z,2.20
2023-04-29T04:47:16.689Z,3.13
2023-04-29T04:49:44.478Z,2.10
2023-04-29T04:52:11.884Z,2.07
2023-04-29T04:54:38.876Z,1.47
2023-04-29T04:57:06.315Z,4.67
2023-04-29T04:59:34.315Z,3.87
2023-04-29T05:02:01.340Z,1.50
2023-04-29T05:04:28.548Z,2.93
2023-04-29T05:06:55.616Z,1.83
2023-04-29T05:09:22.535Z,2.30
2023-04-29T05:11:49.487Z,2.03
2023-04-29T05:14:16.453Z,3.97
2023-04-29T05:16:45.003Z,4.07
2023-04-29T05:19:12.172Z,5.03
2023-04-29T05:21:39.103Z,5.63
2023-04-29T05:24:06.423Z,3.43
2023-04-29T05:26:33.363Z,3.97
2023-04-29T05:29:00.900Z,2.37
2023-04-29T05:31:28.563Z,4.27
2023-04-29T05:33:55.661Z,2.90
2023-04-29T05:36:22.743Z,2.97
2023-04-29T05:38:49.654Z,4.50
2023-04-29T05:41:16.584Z,5.30
2023-04-29T05:43:43.539Z,2.63
2023-04-29T05:46:10.730Z,2.67
2023-04-29T05:48:37.647Z,4.03
2023-04-29T05:51:04.595Z,4.20
2023-04-29T05:53:31.604Z,4.13
2023-04-29T05:55:58.628Z,4.47
2023-04-29T05:58:28.511Z,5.13
2023-04-29T06:00:55.496Z,4.00
2023-04-29T06:03:22.824Z,3.33
2023-04-29T06:05:50.569Z,4.03
2023-04-29T06:08:17.949Z,1.93
2023-04-29T06:10:45.007Z,2.67
2023-04-29T06:13:12.189Z,3.83
2023-04-29T06:15:39.371Z,4.33
2023-04-29T06:18:06.531Z,5.90
2023-04-29T06:20:34.490Z,7.23
2023-04-29T06:23:03.058Z,6.13
2023-04-29T06:25:30.181Z,5.20
2023-04-29T06:28:00.080Z,7.30
2023-04-29T06:30:27.376Z,4.57
2023-04-29T06:32:54.362Z,4.77
2023-04-29T06:35:21.478Z,11.37
2023-04-29T06:37:48.396Z,4.70
2023-04-29T06:40:15.452Z,41.57
2023-04-29T06:42:43.792Z,43.13
2023-04-29T06:45:11.056Z,30.37
2023-04-29T06:47:38.096Z,11.10
2023-04-29T06:50:05.393Z,17.33
2023-04-29T06:52:33.463Z,16.53
2023-04-29T06:55:00.818Z,14.10
2023-04-29T06:57:27.793Z,25.33
2023-04-29T06:59:55.039Z,20.47
2023-04-29T07:02:22.265Z,25.90
2023-04-29T07:04:50.312Z,15.03
2023-04-29T07:07:17.536Z,19.83
2023-04-29T07:09:44.408Z,11.77
2023-04-29T07:12:11.344Z,10.23
2023-04-29T07:14:38.405Z,8.70
2023-04-29T07:17:05.454Z,14.00
2023-04-29T07:19:32.586Z,11.83
2023-04-29T07:21:59.787Z,11.23
2023-04-29T07:24:26.840Z,12.77
2023-04-29T07:26:53.832Z,18.20
2023-04-29T07:29:20.858Z,22.77
2023-04-29T07:31:47.864Z,17.53
2023-04-29T07:34:14.799Z,6.50
2023-04-29T07:36:41.678Z,3.77
2023-04-29T07:39:09.222Z,4.87
2023-04-29T07:41:36.180Z,6.30
2023-04-29T07:44:03.089Z,7.27
2023-04-29T07:46:30.050Z,7.73
2023-04-29T07:48:58.365Z,10.17
2023-04-29T07:51:25.288Z,9.93
2023-04-29T07:53:52.231Z,12.97
2023-04-29T07:56:20.038Z,16.10
2023-04-29T07:58:46.951Z,6.07
2023-04-29T08:01:13.889Z,10.00
2023-04-29T08:03:42.049Z,4.57
2023-04-29T08:06:09.447Z,4.93
2023-04-29T08:08:36.559Z,4.17
2023-04-29T08:11:03.665Z,3.87
2023-04-29T08:13:30.659Z,4.37
2023-04-29T08:15:57.628Z,3.50
2023-04-29T08:18:24.651Z,1.60
2023-04-29T08:20:51.691Z,2.13
2023-04-29T08:23:18.610Z,2.00
2023-04-29T08:25:45.676Z,0.97
2023-04-29T08:28:13.081Z,1.40
2023-04-29T08:30:43.180Z,1.83
2023-04-29T08:33:10.300Z,2.07
2023-04-29T08:35:37.696Z,0.90
2023-04-29T08:38:06.757Z,1.93
2023-04-29T08:40:47.064Z,1.93
2023-04-29T08:43:17.680Z,2.83
2023-04-29T08:45:45.292Z,1.87
2023-04-29T08:48:12.713Z,2.07
2023-04-29T08:50:41.207Z,2.27
2023-04-29T08:53:09.184Z,1.63
2023-04-29T08:55:37.440Z,1.33
2023-04-29T08:58:05.194Z,1.60
2023-04-29T09:00:33.759Z,1.97
2023-04-29T09:03:05.293Z,2.90
2023-04-29T09:05:34.499Z,3.03
2023-04-29T09:08:03.345Z,2.30
2023-04-29T09:10:30.311Z,2.00
2023-04-29T09:13:01.375Z,1.77
2023-04-29T09:15:29.013Z,5.53
2023-04-29T09:17:55.964Z,2.47
2023-04-29T09:20:22.894Z,2.97
2023-04-29T09:22:51.189Z,2.90
2023-04-29T09:25:18.280Z,6.63
2023-04-29T09:27:45.464Z,5.47
2023-04-29T09:30:13.629Z,4.60
2023-04-29T09:32:41.117Z,1.67
2023-04-29T09:35:25.416Z,2.83
2023-04-29T09:37:56.338Z,1.53
2023-04-29T09:40:31.454Z,1.87
2023-04-29T09:42:59.370Z,5.87
2023-04-29T09:45:39.525Z,6.07
2023-04-29T09:48:08.735Z,3.37
2023-04-29T09:50:39.832Z,2.93
2023-04-29T09:53:09.295Z,6.97
2023-04-29T09:55:36.961Z,4.13
2023-04-29T09:58:03.893Z,3.50
2023-04-29T10:00:33.420Z,3.43
2023-04-29T10:03:01.839Z,3.13
2023-04-29T10:05:30.600Z,3.60
2023-04-29T10:07:59.919Z,2.80
2023-04-29T10:10:30.282Z,5.93
2023-04-29T10:13:01.218Z,3.67
2023-04-29T10:15:40.612Z,2.30
2023-04-29T10:18:20.980Z,4.27
2023-04-29T10:20:48.924Z,3.77
2023-04-29T10:23:17.822Z,3.50
2023-04-29T10:25:46.648Z,1.97
2023-04-29T10:28:18.267Z,3.83
2023-04-29T10:30:50.643Z,2.20
2023-04-29T10:33:19.027Z,3.60
2023-04-29T10:35:48.402Z,5.87
2023-04-29T10:38:28.608Z,3.63
2023-04-29T10:40:58.290Z,2.97
2023-04-29T10:43:26.822Z,3.87
2023-04-29T10:46:22.311Z,8.03
2023-04-29T10:48:52.649Z,3.17
2023-04-29T10:51:43.890Z,3.53
2023-04-29T10:54:14.910Z,6.17
2023-04-29T10:56:50.501Z,5.37
2023-04-29T10:59:22.441Z,4.20
2023-04-29T11:01:51.691Z,1.77
2023-04-29T11:04:20.698Z,6.57
2023-04-29T11:06:55.623Z,2.33
2023-04-29T11:09:29.629Z,2.20
2023-04-29T11:11:59.030Z,3.63
2023-04-29T11:14:41.129Z,2.43
2023-04-29T11:17:09.880Z,2.07
2023-04-29T11:19:41.846Z,2.23
2023-04-29T11:22:14.675Z,1.27
2023-04-29T11:24:56.195Z,2.33
2023-04-29T11:27:26.481Z,2.60
2023-04-29T11:30:01.166Z,1.93
2023-04-29T11:32:42.845Z,4.90
2023-04-29T11:35:14.761Z,4.83
2023-04-29T11:37:42.886Z,3.00
2023-04-29T11:40:11.644Z,1.80
2023-04-29T11:42:49.390Z,3.60
2023-04-29T11:45:20.121Z,5.13
2023-04-29T11:47:48.977Z,4.17
2023-04-29T11:50:19.685Z,3.10
2023-04-29T11:52:48.696Z,3.23
2023-04-29T11:55:15.970Z,1.90
2023-04-29T11:57:43.011Z,1.47
2023-04-29T12:00:12.872Z,3.73
2023-04-29T12:02:44.085Z,5.07
2023-04-29T12:05:13.262Z,4.40
2023-04-29T12:07:40.575Z,2.60
2023-04-29T12:10:11.752Z,6.13
2023-04-29T12:12:41.379Z,1.67
2023-04-29T12:15:10.383Z,3.57
2023-04-29T12:17:38.309Z,3.03
2023-04-29T12:20:06.811Z,2.63
2023-04-29T12:22:33.907Z,2.07
2023-04-29T12:25:03.803Z,4.30
2023-04-29T12:27:30.907Z,4.13
2023-04-29T12:29:58.513Z,2.50
2023-04-29T12:32:26.030Z,3.10
2023-04-29T12:34:53.621Z,2.17
2023-04-29T12:37:23.118Z,2.57
2023-04-29T12:39:50.906Z,2.53
2023-04-29T12:42:18.146Z,5.33
2023-04-29T12:44:48.776Z,5.73
2023-04-29T12:47:17.245Z,4.27
2023-04-29T12:49:45.861Z,3.53
2023-04-29T12:52:13.409Z,4.07
2023-04-29T12:54:44.266Z,1.80
2023-04-29T12:57:12.637Z,3.37
2023-04-29T12:59:41.252Z,6.03
2023-04-29T13:02:08.737Z,5.33
2023-04-29T13:04:35.878Z,3.33
2023-04-29T13:07:04.435Z,2.63
2023-04-29T13:09:31.513Z,2.27
2023-04-29T13:11:59.277Z,2.97
2023-04-29T13:14:27.052Z,4.77
2023-04-29T13:16:54.164Z,2.90
2023-04-29T13:19:30.558Z,6.50
2023-04-29T13:22:06.813Z,5.10
2023-04-29T13:24:35.931Z,3.07
2023-04-29T13:27:05.987Z,4.73
2023-04-29T13:29:33.035Z,2.80
2023-04-29T13:32:00.033Z,4.27
2023-04-29T13:34:26.991Z,5.13
2023-04-29T13:36:53.909Z,2.47
2023-04-29T13:39:23.214Z,5.43
2023-04-29T13:41:50.221Z,5.17
2023-04-29T13:44:29.345Z,4.93
2023-04-29T13:47:01.662Z,6.90
2023-04-29T13:50:01.805Z,4.93
2023-04-29T13:58:07.802Z,4.13
2023-04-29T14:00:14.094Z,3.77
2023-04-29T14:05:21.017Z,3.07
2023-04-29T14:07:48.159Z,5.60
2023-04-29T14:10:15.985Z,5.40
2023-04-29T14:12:42.936Z,5.10
2023-04-29T14:15:10.206Z,4.63
2023-04-29T14:17:37.373Z,4.23
2023-04-29T14:20:05.038Z,2.50
2023-04-29T14:22:32.036Z,5.03
2023-04-29T14:24:58.924Z,4.07
2023-04-29T14:27:26.484Z,5.47
2023-04-29T14:29:53.503Z,4.97
2023-04-29T14:32:20.649Z,4.27
2023-04-29T14:34:47.914Z,5.40
2023-04-29T14:37:14.852Z,3.73
2023-04-29T14:39:41.796Z,5.63
2023-04-29T14:42:08.699Z,5.03
2023-04-29T14:44:35.910Z,4.00
2023-04-29T14:47:02.845Z,4.50
2023-04-29T14:49:31.559Z,5.00
2023-04-29T14:51:58.927Z,4.43
2023-04-29T14:54:27.174Z,9.23
2023-04-29T14:56:54.282Z,6.20
2023-04-29T14:59:21.228Z,4.73
2023-04-29T15:01:48.792Z,6.77
2023-04-29T15:04:15.856Z,5.57
2023-04-29T15:06:43.219Z,7.87
2023-04-29T15:09:10.317Z,8.83
2023-04-29T15:11:37.308Z,7.83
2023-04-29T15:14:04.275Z,6.47
2023-04-29T15:16:31.743Z,7.70
2023-04-29T15:18:59.276Z,7.43
2023-04-29T15:21:27.141Z,8.23
2023-04-29T15:23:54.211Z,4.80
2023-04-29T15:26:21.901Z,6.00
2023-04-29T15:28:49.151Z,9.37
2023-04-29T15:31:16.097Z,4.77
2023-04-29T15:33:43.500Z,6.33
2023-04-29T15:36:10.711Z,7.43
2023-04-29T15:38:38.233Z,6.63
2023-04-29T15:41:05.671Z,6.10
2023-04-29T15:43:33.501Z,4.33
2023-04-29T15:46:00.749Z,3.87
2023-04-29T15:48:27.897Z,6.47
2023-04-29T15:50:54.854Z,5.53
2023-04-29T15:53:21.853Z,4.57
2023-04-29T15:55:48.768Z,4.53
2023-04-29T15:58:16.126Z,8.33
2023-04-29T16:00:43.111Z,5.60
2023-04-29T16:03:10.110Z,5.20
2023-04-29T16:05:38.049Z,5.37
2023-04-29T16:08:06.717Z,5.30
2023-04-29T16:10:33.672Z,7.70
2023-04-29T16:13:01.127Z,8.00
2023-04-29T16:15:29.352Z,7.93
2023-04-29T16:17:56.309Z,19.83
2023-04-29T16:20:23.399Z,6.73
2023-04-29T16:22:50.318Z,6.70
2023-04-29T16:25:17.564Z,6.67
2023-04-29T16:27:44.721Z,8.50
2023-04-29T16:30:12.118Z,6.23
2023-04-29T16:32:41.491Z,6.90
2023-04-29T16:35:09.708Z,7.90
2023-04-29T16:37:37.455Z,6.60
2023-04-29T16:40:05.283Z,3.93
2023-04-29T16:42:32.187Z,5.33
2023-04-29T16:44:59.073Z,3.80
2023-04-29T16:47:26.001Z,7.77
2023-04-29T16:49:53.425Z,18.83
2023-04-29T16:52:20.837Z,7.43
2023-04-29T16:54:47.781Z,6.13
2023-04-29T16:57:14.706Z,3.60
2023-04-29T16:59:41.657Z,3.03
2023-04-29T17:02:09.181Z,4.40
2023-04-29T17:04:36.285Z,3.53
2023-04-29T17:07:03.881Z,2.73
2023-04-29T17:09:31.667Z,5.10
2023-04-29T17:11:58.589Z,2.93
2023-04-29T17:14:25.572Z,2.07
2023-04-29T17:16:52.536Z,2.07
2023-04-29T17:19:19.453Z,2.60
2023-04-29T17:21:46.576Z,2.70
2023-04-29T17:24:13.445Z,2.20
2023-04-29T17:26:40.368Z,2.37
2023-04-29T17:29:08.740Z,1.50
2023-04-29T17:31:54.695Z,1.70
2023-04-29T17:34:25.651Z,2.60
2023-04-29T17:36:55.657Z,2.40
2023-04-29T17:39:23.126Z,1.57
2023-04-29T17:41:50.036Z,2.30
2023-04-29T17:44:16.954Z,1.30
2023-04-29T17:46:44.087Z,4.23
2023-04-29T17:49:11.543Z,1.30
2023-04-29T17:51:38.620Z,1.80
2023-04-29T17:54:07.387Z,2.23
2023-04-29T17:56:35.148Z,1.27
2023-04-29T17:59:05.612Z,1.67
2023-04-29T18:01:33.451Z,1.77
2023-04-29T18:04:00.936Z,1.57
2023-04-29T18:06:30.450Z,1.87
2023-04-29T18:08:57.579Z,1.37
2023-04-29T18:11:25.149Z,3.27
2023-04-29T18:13:53.245Z,1.60
2023-04-29T18:16:20.572Z,2.23
2023-04-29T18:18:47.628Z,2.50
2023-04-29T18:21:23.329Z,2.50
2023-04-29T18:23:50.804Z,1.47
2023-04-29T18:26:17.980Z,2.00
2023-04-29T18:28:46.244Z,2.83
2023-04-29T18:31:14.979Z,1.67
2023-04-29T18:33:42.232Z,5.13
2023-04-29T18:36:09.301Z,3.63
2023-04-29T18:38:36.362Z,3.67
2023-04-29T18:41:05.008Z,2.37
2023-04-29T18:43:31.924Z,7.97
2023-04-29T18:45:58.995Z,4.10
2023-04-29T18:48:27.730Z,11.20
2023-04-29T18:50:55.816Z,3.13
2023-04-29T18:53:22.776Z,1.90
2023-04-29T18:55:49.712Z,2.30
2023-04-29T18:58:16.637Z,3.77
2023-04-29T19:00:43.560Z,1.07
2023-04-29T19:03:11.469Z,15.10
2023-04-29T19:05:38.773Z,1.20
2023-04-29T19:08:05.961Z,1.30
2023-04-29T19:10:32.883Z,1.02
2023-04-29T19:12:59.835Z,0.57
2023-04-29T19:15:28.464Z,1.57
2023-04-29T19:17:55.579Z,0.87
2023-04-29T19:20:22.539Z,0.47
2023-04-29T19:22:49.455Z,0.63
2023-04-29T19:25:16.508Z,0.73
2023-04-29T19:27:48.807Z,0.57
2023-04-29T19:30:16.619Z,8.53
2023-04-29T19:32:45.891Z,1.17
2023-04-29T19:35:12.845Z,2.03
2023-04-29T19:37:40.382Z,1.53
2023-04-29T19:40:10.649Z,0.60
2023-04-29T19:42:38.020Z,0.40
2023-04-29T19:45:07.677Z,0.67
2023-04-29T19:47:35.621Z,0.57
2023-04-29T19:50:03.102Z,0.70
2023-04-29T19:52:30.199Z,0.50
2023-04-29T19:54:57.370Z,0.40
2023-04-29T19:57:25.120Z,0.93
2023-04-29T19:59:52.530Z,0.83
2023-04-29T20:02:19.767Z,0.60
2023-04-29T20:04:46.829Z,0.60
2023-04-29T20:07:13.733Z,0.67
2023-04-29T20:09:40.770Z,0.70
2023-04-29T20:12:07.699Z,0.50
2023-04-29T20:14:34.749Z,0.50
2023-04-29T20:17:01.904Z,1.07
2023-04-29T20:19:29.224Z,0.90
2023-04-29T20:21:56.189Z,0.67
2023-04-29T20:24:23.096Z,0.70
2023-04-29T20:26:50.007Z,0.70
2023-04-29T20:29:16.899Z,0.70
2023-04-29T20:31:44.079Z,1.30
2023-04-29T20:34:11.209Z,0.53
2023-04-29T20:36:38.512Z,2.33
2023-04-29T20:39:06.880Z,0.53
2023-04-29T20:41:33.850Z,0.80
2023-04-29T20:44:00.789Z,1.03
2023-04-29T20:46:27.770Z,0.60
2023-04-29T20:48:54.777Z,1.10
2023-04-29T20:51:21.730Z,0.53
2023-04-29T20:53:49.135Z,0.77
2023-04-29T20:56:16.263Z,1.53
2023-04-29T20:58:43.198Z,0.80
2023-04-29T21:01:10.149Z,0.80
2023-04-29T21:03:37.144Z,1.57
2023-04-29T21:06:04.281Z,0.90
2023-04-29T21:08:31.962Z,1.77
2023-04-29T21:10:58.869Z,0.80
2023-04-29T21:13:26.050Z,0.60
2023-04-29T21:15:53.050Z,1.13
2023-04-29T21:18:20.049Z,0.40
2023-04-29T21:20:47.006Z,0.60
2023-04-29T21:23:13.893Z,1.10
2023-04-29T21:25:41.048Z,0.60
2023-04-29T21:28:07.925Z,1.77
2023-04-29T21:30:34.846Z,1.13
2023-04-29T21:33:02.079Z,1.53
2023-04-29T21:35:29.486Z,1.17
2023-04-29T21:37:56.698Z,0.60
2023-04-29T21:40:26.415Z,0.70
2023-04-29T21:42:55.349Z,0.77
2023-04-29T21:45:22.557Z,0.67
2023-04-29T21:47:49.941Z,0.90
2023-04-29T21:50:16.936Z,1.43
2023-04-29T21:52:44.001Z,0.60
2023-04-29T21:55:10.988Z,0.80
2023-04-29T21:57:44.307Z,0.40
2023-04-29T22:00:32.937Z,1.03
2023-04-29T22:03:03.568Z,1.33
2023-04-29T22:05:31.445Z,0.67
2023-04-29T22:07:59.873Z,1.13
2023-04-29T22:10:26.944Z,0.70
2023-04-29T22:12:53.987Z,0.80
2023-04-29T22:17:54.302Z,0.50
2023-04-29T22:20:21.444Z,1.50
2023-04-29T22:22:48.396Z,0.50
2023-04-29T22:25:15.454Z,0.80
2023-04-29T22:27:42.361Z,0.70
2023-04-29T22:30:09.766Z,1.60
2023-04-29T22:32:36.861Z,1.00
2023-04-29T22:35:04.244Z,1.53
2023-04-29T22:37:31.360Z,1.03
2023-04-29T22:39:58.354Z,0.77
2023-04-29T22:42:25.291Z,0.80
2023-04-29T22:44:52.169Z,0.73
2023-04-29T22:47:19.128Z,0.77
2023-04-29T22:49:46.569Z,0.60
2023-04-29T22:52:13.553Z,0.70
2023-04-29T22:54:40.794Z,0.73
2023-04-29T22:57:07.918Z,0.50
2023-04-29T22:59:34.804Z,0.77
2023-04-29T23:02:01.778Z,0.50
2023-04-29T23:04:28.820Z,0.70
2023-04-29T23:06:56.063Z,0.40
2023-04-29T23:09:22.979Z,0.50
2023-04-29T23:11:49.967Z,1.00
2023-04-29T23:14:17.301Z,0.50
2023-04-29T23:16:44.280Z,0.60
2023-04-29T23:19:11.224Z,0.60
2023-04-29T23:21:38.144Z,0.50
2023-04-29T23:24:05.427Z,0.70
2023-04-29T23:26:32.493Z,0.47
2023-04-29T23:28:59.476Z,0.70
2023-04-29T23:31:26.436Z,0.60
2023-04-29T23:33:53.403Z,0.80
2023-04-29T23:36:20.311Z,0.60
2023-04-29T23:38:47.520Z,0.53
2023-04-29T23:41:14.525Z,0.63
2023-04-29T23:43:41.462Z,0.53
2023-04-29T23:46:08.565Z,0.57
2023-04-29T23:48:35.878Z,0.67
2023-04-29T23:51:02.786Z,0.60
2023-04-29T23:53:29.970Z,0.60
2023-04-29T23:55:56.973Z,1.03
2023-04-29T23:58:23.917Z,0.50
